PWSweather.com
Personal Weather Stations
Station Observations
KCTCOLEB1
Sandy Brook, Colebrook, CT 06021

Sandy BrookColebrook, CT 06021

Lat: 42.0018, Lon: -73.0825

Elevation: 935

Station Type: Davis Vantage Pro2 + Solar + UV

High Low Average
Temperature 52.8°F11.6°C 39.5°F4.2°C 46.2°F7.9°C
Dew Point 44.8°F7.1°C 35.7°F2.1°C 40.4°F4.7°C
Winds 2.3 mph 3.7 kmh Calm Calm Calm SECalm SE
Wind Gusts 5.8 mph9.3 kmh -- 1.0 mph1.6 kmh
Humidity 97% 56% 82%
Pressure 30.46 in1031.5 mb 30.16 in1021.3 mb -
Precipitation 0.00 in0.0 mm - -
Hour Temp Dew Point Humidity Winds Wind Gusts Pressure Precip Precip Rate Daily Precip Total
12:00 AM 40.0°F4.4°C 39.0°F3.9°C 96% Calm Calm -- 30.40 in1029.5 mb - 0.00 in0.0 mm 0.00 in0.0 mm
12:10 AM 40.0°F4.4°C 39.0°F3.9°C 96% Calm Calm -- 30.40 in1029.5 mb - 0.00 in0.0 mm 0.00 in0.0 mm
12:20 AM 40.0°F4.4°C 39.0°F3.9°C 96% Calm Calm -- 30.42 in1030.1 mb - 0.00 in0.0 mm 0.00 in0.0 mm
12:30 AM 40.1°F4.5°C 39.1°F3.9°C 96% Calm Calm -- 30.41 in1029.8 mb - 0.00 in0.0 mm 0.00 in0.0 mm
12:40 AM 40.1°F4.5°C 39.1°F3.9°C 96% Calm Calm -- 30.42 in1030.1 mb - 0.00 in0.0 mm 0.00 in0.0 mm
12:50 AM 40.1°F4.5°C 39.1°F3.9°C 96% Calm Calm -- 30.42 in1030.1 mb - 0.00 in0.0 mm 0.00 in0.0 mm
01:00 AM 39.9°F4.4°C 38.9°F3.8°C 96% Calm Calm -- 30.42 in1030.1 mb - 0.00 in0.0 mm 0.00 in0.0 mm
01:10 AM 39.7°F4.3°C 38.7°F3.7°C 96% Calm Calm -- 30.42 in1030.1 mb - 0.00 in0.0 mm 0.00 in0.0 mm
01:20 AM 39.6°F4.2°C 38.6°F3.7°C 96% Calm Calm -- 30.42 in1030.1 mb - 0.00 in0.0 mm 0.00 in0.0 mm
01:30 AM 39.5°F4.2°C 38.5°F3.6°C 96% Calm Calm -- 30.43 in1030.5 mb - 0.00 in0.0 mm 0.00 in0.0 mm
01:40 AM 39.5°F4.2°C 38.5°F3.6°C 96% Calm Calm -- 30.43 in1030.5 mb - 0.00 in0.0 mm 0.00 in0.0 mm
01:50 AM 39.5°F4.2°C 38.5°F3.6°C 96% Calm Calm -- 30.43 in1030.5 mb - 0.00 in0.0 mm 0.00 in0.0 mm
02:00 AM 39.6°F4.2°C 38.6°F3.7°C 96% Calm Calm -- 30.43 in1030.5 mb - 0.00 in0.0 mm 0.00 in0.0 mm
02:10 AM 39.7°F4.3°C 38.7°F3.7°C 96% Calm Calm -- 30.43 in1030.5 mb - 0.00 in0.0 mm 0.00 in0.0 mm
02:20 AM 39.8°F4.3°C 38.7°F3.7°C 96% Calm Calm -- 30.42 in1030.1 mb - 0.00 in0.0 mm 0.00 in0.0 mm
02:30 AM 39.8°F4.3°C 38.8°F3.8°C 96% Calm Calm -- 30.42 in1030.1 mb - 0.00 in0.0 mm 0.00 in0.0 mm
02:40 AM 39.8°F4.3°C 38.8°F3.8°C 96% Calm Calm -- 30.41 in1029.8 mb - 0.00 in0.0 mm 0.00 in0.0 mm
02:50 AM 39.8°F4.3°C 38.8°F3.8°C 96% Calm Calm -- 30.42 in1030.1 mb - 0.00 in0.0 mm 0.00 in0.0 mm
03:00 AM 39.8°F4.3°C 39.0°F3.9°C 97% Calm Calm -- 30.42 in1030.1 mb - 0.00 in0.0 mm 0.00 in0.0 mm
03:10 AM 39.8°F4.3°C 39.0°F3.9°C 97% Calm Calm -- 30.42 in1030.1 mb - 0.00 in0.0 mm 0.00 in0.0 mm
03:20 AM 40.0°F4.4°C 39.2°F4.0°C 97% Calm Calm -- 30.42 in1030.1 mb - 0.00 in0.0 mm 0.00 in0.0 mm
03:30 AM 40.0°F4.4°C 39.2°F4.0°C 97% Calm Calm -- 30.41 in1029.8 mb - 0.00 in0.0 mm 0.00 in0.0 mm
03:40 AM 40.1°F4.5°C 39.3°F4.1°C 97% Calm Calm -- 30.42 in1030.1 mb - 0.00 in0.0 mm 0.00 in0.0 mm
03:50 AM 40.2°F4.6°C 39.4°F4.1°C 97% Calm Calm -- 30.42 in1030.1 mb - 0.00 in0.0 mm 0.00 in0.0 mm
04:00 AM 40.3°F4.6°C 39.5°F4.2°C 97% Calm Calm -- 30.42 in1030.1 mb - 0.00 in0.0 mm 0.00 in0.0 mm
04:10 AM 40.3°F4.6°C 39.5°F4.2°C 97% Calm Calm -- 30.42 in1030.1 mb - 0.00 in0.0 mm 0.00 in0.0 mm
04:20 AM 40.4°F4.7°C 39.6°F4.2°C 97% Calm Calm -- 30.43 in1030.5 mb - 0.00 in0.0 mm 0.00 in0.0 mm
04:30 AM 40.5°F4.7°C 39.7°F4.3°C 97% Calm Calm -- 30.43 in1030.5 mb - 0.00 in0.0 mm 0.00 in0.0 mm
04:40 AM 40.5°F4.7°C 39.7°F4.3°C 97% Calm Calm -- 30.43 in1030.5 mb - 0.00 in0.0 mm 0.00 in0.0 mm
04:50 AM 40.6°F4.8°C 39.8°F4.3°C 97% Calm Calm -- 30.44 in1030.8 mb - 0.00 in0.0 mm 0.00 in0.0 mm
05:00 AM 40.6°F4.8°C 39.8°F4.3°C 97% Calm Calm -- 30.45 in1031.2 mb - 0.00 in0.0 mm 0.00 in0.0 mm
05:10 AM 40.7°F4.8°C 39.9°F4.4°C 97% Calm Calm -- 30.43 in1030.5 mb - 0.00 in0.0 mm 0.00 in0.0 mm
05:20 AM 40.8°F4.9°C 40.0°F4.4°C 97% Calm Calm -- 30.42 in1030.1 mb - 0.00 in0.0 mm 0.00 in0.0 mm
05:30 AM 40.9°F4.9°C 40.1°F4.5°C 97% Calm Calm -- 30.43 in1030.5 mb - 0.00 in0.0 mm 0.00 in0.0 mm
05:40 AM 41.1°F5.1°C 40.3°F4.6°C 97% Calm Calm -- 30.43 in1030.5 mb - 0.00 in0.0 mm 0.00 in0.0 mm
05:50 AM 41.3°F5.2°C 40.5°F4.7°C 97% Calm Calm -- 30.44 in1030.8 mb - 0.00 in0.0 mm 0.00 in0.0 mm
06:00 AM 41.5°F5.3°C 40.7°F4.8°C 97% Calm Calm -- 30.44 in1030.8 mb - 0.00 in0.0 mm 0.00 in0.0 mm
06:10 AM 41.6°F5.3°C 40.8°F4.9°C 97% Calm Calm -- 30.44 in1030.8 mb - 0.00 in0.0 mm 0.00 in0.0 mm
06:20 AM 41.8°F5.4°C 41.0°F5.0°C 97% Calm Calm -- 30.46 in1031.5 mb - 0.00 in0.0 mm 0.00 in0.0 mm
06:30 AM 42.0°F5.6°C 41.2°F5.1°C 97% Calm Calm -- 30.45 in1031.2 mb - 0.00 in0.0 mm 0.00 in0.0 mm
06:40 AM 42.2°F5.7°C 41.4°F5.2°C 97% Calm Calm -- 30.44 in1030.8 mb - 0.00 in0.0 mm 0.00 in0.0 mm
06:50 AM 42.3°F5.7°C 41.5°F5.3°C 97% Calm Calm -- 30.45 in1031.2 mb - 0.00 in0.0 mm 0.00 in0.0 mm
07:00 AM 42.7°F5.9°C 41.9°F5.5°C 97% Calm Calm -- 30.45 in1031.2 mb - 0.00 in0.0 mm 0.00 in0.0 mm
07:10 AM 43.1°F6.2°C 42.3°F5.7°C 97% Calm Calm -- 30.44 in1030.8 mb - 0.00 in0.0 mm 0.00 in0.0 mm
07:20 AM 43.2°F6.2°C 42.4°F5.8°C 97% Calm Calm -- 30.45 in1031.2 mb - 0.00 in0.0 mm 0.00 in0.0 mm
07:30 AM 43.3°F6.3°C 42.5°F5.8°C 97% Calm Calm -- 30.46 in1031.5 mb - 0.00 in0.0 mm 0.00 in0.0 mm
07:40 AM 43.6°F6.4°C 42.8°F6.0°C 97% Calm Calm -- 30.44 in1030.8 mb - 0.00 in0.0 mm 0.00 in0.0 mm
07:50 AM 43.8°F6.6°C 42.7°F5.9°C 96% Calm Calm -- 30.46 in1031.5 mb - 0.00 in0.0 mm 0.00 in0.0 mm
08:00 AM 44.1°F6.7°C 43.0°F6.1°C 96% Calm Calm -- 30.45 in1031.2 mb - 0.00 in0.0 mm 0.00 in0.0 mm
08:10 AM 44.6°F7.0°C 43.3°F6.3°C 95% Calm Calm -- 30.46 in1031.5 mb - 0.00 in0.0 mm 0.00 in0.0 mm
08:20 AM 45.1°F7.3°C 43.8°F6.6°C 95% Calm Calm -- 30.46 in1031.5 mb - 0.00 in0.0 mm 0.00 in0.0 mm
08:30 AM 45.3°F7.4°C 44.0°F6.7°C 95% Calm Calm -- 30.46 in1031.5 mb - 0.00 in0.0 mm 0.00 in0.0 mm
08:40 AM 45.7°F7.6°C 44.1°F6.7°C 94% Calm Calm -- 30.46 in1031.5 mb - 0.00 in0.0 mm 0.00 in0.0 mm
08:50 AM 45.9°F7.7°C 43.7°F6.5°C 92% Calm Calm -- 30.45 in1031.2 mb - 0.00 in0.0 mm 0.00 in0.0 mm
09:00 AM 46.2°F7.9°C 42.2°F5.7°C 86% 1.2 mph SW1.9 kmh SW 1.2 mph1.9 kmh 30.44 in1030.8 mb - 0.00 in0.0 mm 0.00 in0.0 mm
09:10 AM 46.6°F8.1°C 40.4°F4.7°C 79% 2.3 mph WSW3.7 kmh WSW 4.6 mph7.4 kmh 30.44 in1030.8 mb - 0.00 in0.0 mm 0.00 in0.0 mm
09:20 AM 47.0°F8.3°C 39.5°F4.2°C 75% 1.2 mph SW1.9 kmh SW 2.3 mph3.7 kmh 30.43 in1030.5 mb - 0.00 in0.0 mm 0.00 in0.0 mm
09:30 AM 47.4°F8.6°C 39.2°F4.0°C 73% Calm Calm 1.2 mph1.9 kmh 30.44 in1030.8 mb - 0.00 in0.0 mm 0.00 in0.0 mm
09:40 AM 47.6°F8.7°C 39.4°F4.1°C 73% Calm Calm 1.2 mph1.9 kmh 30.44 in1030.8 mb - 0.00 in0.0 mm 0.00 in0.0 mm
09:50 AM 47.9°F8.8°C 38.6°F3.7°C 70% Calm Calm 1.2 mph1.9 kmh 30.44 in1030.8 mb - 0.00 in0.0 mm 0.00 in0.0 mm
10:00 AM 48.1°F8.9°C 38.4°F3.6°C 69% 1.2 mph S1.9 kmh S 1.2 mph1.9 kmh 30.44 in1030.8 mb - 0.00 in0.0 mm 0.00 in0.0 mm
10:10 AM 48.3°F9.1°C 38.6°F3.7°C 69% Calm Calm -- 30.44 in1030.8 mb - 0.00 in0.0 mm 0.00 in0.0 mm
10:20 AM 48.5°F9.2°C 38.8°F3.8°C 69% Calm Calm 1.2 mph1.9 kmh 30.43 in1030.5 mb - 0.00 in0.0 mm 0.00 in0.0 mm
10:30 AM 48.7°F9.3°C 37.5°F3.1°C 65% 1.2 mph W1.9 kmh W 2.3 mph3.7 kmh 30.43 in1030.5 mb - 0.00 in0.0 mm 0.00 in0.0 mm
10:40 AM 48.8°F9.3°C 36.4°F2.4°C 62% 1.2 mph WSW1.9 kmh WSW 3.5 mph5.6 kmh 30.42 in1030.1 mb - 0.00 in0.0 mm 0.00 in0.0 mm
10:50 AM 49.0°F9.4°C 37.7°F3.2°C 65% 1.2 mph SW1.9 kmh SW 2.3 mph3.7 kmh 30.42 in1030.1 mb - 0.00 in0.0 mm 0.00 in0.0 mm
11:00 AM 49.2°F9.6°C 36.7°F2.6°C 62% 2.3 mph SW3.7 kmh SW 5.8 mph9.3 kmh 30.41 in1029.8 mb - 0.00 in0.0 mm 0.00 in0.0 mm
11:10 AM 49.3°F9.6°C 36.4°F2.4°C 61% 1.2 mph WSW1.9 kmh WSW 2.3 mph3.7 kmh 30.41 in1029.8 mb - 0.00 in0.0 mm 0.00 in0.0 mm
11:20 AM 49.5°F9.7°C 36.2°F2.3°C 60% 1.2 mph SW1.9 kmh SW 3.5 mph5.6 kmh 30.41 in1029.8 mb - 0.00 in0.0 mm 0.00 in0.0 mm
11:30 AM 49.7°F9.8°C 35.9°F2.2°C 59% 1.2 mph WSW1.9 kmh WSW 3.5 mph5.6 kmh 30.41 in1029.8 mb - 0.00 in0.0 mm 0.00 in0.0 mm
11:40 AM 50.0°F10.0°C 35.8°F2.1°C 58% Calm Calm -- 30.40 in1029.5 mb - 0.00 in0.0 mm 0.00 in0.0 mm
11:50 AM 50.4°F10.2°C 35.7°F2.1°C 57% 1.2 mph W1.9 kmh W 3.5 mph5.6 kmh 30.40 in1029.5 mb - 0.00 in0.0 mm 0.00 in0.0 mm
12:00 PM 50.7°F10.4°C 36.4°F2.4°C 58% 1.2 mph SE1.9 kmh SE 3.5 mph5.6 kmh 30.39 in1029.1 mb - 0.00 in0.0 mm 0.00 in0.0 mm
12:10 PM 51.0°F10.6°C 36.7°F2.6°C 58% 2.3 mph WSW3.7 kmh WSW 3.5 mph5.6 kmh 30.39 in1029.1 mb - 0.00 in0.0 mm 0.00 in0.0 mm
12:20 PM 51.3°F10.7°C 36.6°F2.6°C 57% 1.2 mph ENE1.9 kmh ENE 2.3 mph3.7 kmh 30.39 in1029.1 mb - 0.00 in0.0 mm 0.00 in0.0 mm
12:30 PM 51.8°F11.0°C 37.9°F3.3°C 59% 1.2 mph S1.9 kmh S 2.3 mph3.7 kmh 30.38 in1028.8 mb - 0.00 in0.0 mm 0.00 in0.0 mm
12:40 PM 51.9°F11.1°C 38.4°F3.6°C 60% Calm Calm 2.3 mph3.7 kmh 30.38 in1028.8 mb - 0.00 in0.0 mm 0.00 in0.0 mm
12:50 PM 51.9°F11.1°C 37.2°F2.9°C 57% 2.3 mph SW3.7 kmh SW 3.5 mph5.6 kmh 30.38 in1028.8 mb - 0.00 in0.0 mm 0.00 in0.0 mm
01:00 PM 51.9°F11.1°C 38.0°F3.3°C 59% 1.2 mph SE1.9 kmh SE 3.5 mph5.6 kmh 30.37 in1028.4 mb - 0.00 in0.0 mm 0.00 in0.0 mm
01:10 PM 51.9°F11.1°C 37.6°F3.1°C 58% 2.3 mph SE3.7 kmh SE 3.5 mph5.6 kmh 30.37 in1028.4 mb - 0.00 in0.0 mm 0.00 in0.0 mm
01:20 PM 52.1°F11.2°C 39.5°F4.2°C 62% 1.2 mph S1.9 kmh S 1.2 mph1.9 kmh 30.36 in1028.1 mb - 0.00 in0.0 mm 0.00 in0.0 mm
01:30 PM 52.2°F11.2°C 37.4°F3.0°C 57% 2.3 mph WSW3.7 kmh WSW 2.3 mph3.7 kmh 30.37 in1028.4 mb - 0.00 in0.0 mm 0.00 in0.0 mm
01:40 PM 52.2°F11.2°C 37.0°F2.8°C 56% 2.3 mph SW3.7 kmh SW 4.6 mph7.4 kmh 30.36 in1028.1 mb - 0.00 in0.0 mm 0.00 in0.0 mm
01:50 PM 52.3°F11.3°C 38.8°F3.8°C 60% 1.2 mph WSW1.9 kmh WSW 3.5 mph5.6 kmh 30.35 in1027.8 mb - 0.00 in0.0 mm 0.00 in0.0 mm
02:00 PM 52.3°F11.3°C 37.1°F2.8°C 56% 1.2 mph S1.9 kmh S 2.3 mph3.7 kmh 30.35 in1027.8 mb - 0.00 in0.0 mm 0.00 in0.0 mm
02:10 PM 52.5°F11.4°C 37.7°F3.2°C 57% Calm Calm 1.2 mph1.9 kmh 30.34 in1027.4 mb - 0.00 in0.0 mm 0.00 in0.0 mm
02:20 PM 52.6°F11.4°C 37.8°F3.2°C 57% Calm Calm -- 30.34 in1027.4 mb - 0.00 in0.0 mm 0.00 in0.0 mm
02:30 PM 52.7°F11.5°C 38.8°F3.8°C 59% 1.2 mph SSW1.9 kmh SSW 3.5 mph5.6 kmh 30.33 in1027.1 mb - 0.00 in0.0 mm 0.00 in0.0 mm
02:40 PM 52.8°F11.6°C 38.9°F3.8°C 59% 1.2 mph SW1.9 kmh SW 2.3 mph3.7 kmh 30.32 in1026.8 mb - 0.00 in0.0 mm 0.00 in0.0 mm
02:50 PM 52.8°F11.6°C 38.0°F3.3°C 57% 2.3 mph WSW3.7 kmh WSW 3.5 mph5.6 kmh 30.32 in1026.8 mb - 0.00 in0.0 mm 0.00 in0.0 mm
03:00 PM 52.7°F11.5°C 38.7°F3.7°C 59% 1.2 mph ESE1.9 kmh ESE 2.3 mph3.7 kmh 30.32 in1026.8 mb - 0.00 in0.0 mm 0.00 in0.0 mm
03:10 PM 52.5°F11.4°C 38.6°F3.7°C 59% 1.2 mph WSW1.9 kmh WSW 2.3 mph3.7 kmh 30.31 in1026.4 mb - 0.00 in0.0 mm 0.00 in0.0 mm
03:20 PM 52.4°F11.3°C 39.4°F4.1°C 61% 1.2 mph SW1.9 kmh SW 2.3 mph3.7 kmh 30.31 in1026.4 mb - 0.00 in0.0 mm 0.00 in0.0 mm
03:30 PM 52.5°F11.4°C 39.4°F4.1°C 61% 2.3 mph SW3.7 kmh SW 4.6 mph7.4 kmh 30.30 in1026.1 mb - 0.00 in0.0 mm 0.00 in0.0 mm
03:40 PM 52.5°F11.4°C 40.7°F4.8°C 64% 1.2 mph WSW1.9 kmh WSW 3.5 mph5.6 kmh 30.30 in1026.1 mb - 0.00 in0.0 mm 0.00 in0.0 mm
03:50 PM 52.3°F11.3°C 39.7°F4.3°C 62% 1.2 mph SE1.9 kmh SE 3.5 mph5.6 kmh 30.30 in1026.1 mb - 0.00 in0.0 mm 0.00 in0.0 mm
04:00 PM 52.4°F11.3°C 40.2°F4.6°C 63% 1.2 mph E1.9 kmh E 2.3 mph3.7 kmh 30.29 in1025.7 mb - 0.00 in0.0 mm 0.00 in0.0 mm
04:10 PM 52.3°F11.3°C 39.7°F4.3°C 62% 1.2 mph ESE1.9 kmh ESE 1.2 mph1.9 kmh 30.29 in1025.7 mb - 0.00 in0.0 mm 0.00 in0.0 mm
04:20 PM 52.2°F11.2°C 40.0°F4.4°C 63% Calm Calm 1.2 mph1.9 kmh 30.29 in1025.7 mb - 0.00 in0.0 mm 0.00 in0.0 mm
04:30 PM 51.9°F11.1°C 39.7°F4.3°C 63% Calm Calm -- 30.29 in1025.7 mb - 0.00 in0.0 mm 0.00 in0.0 mm
04:40 PM 51.7°F10.9°C 40.3°F4.6°C 65% 1.2 mph WNW1.9 kmh WNW 1.2 mph1.9 kmh 30.29 in1025.7 mb - 0.00 in0.0 mm 0.00 in0.0 mm
04:50 PM 51.4°F10.8°C 40.0°F4.4°C 65% Calm Calm 1.2 mph1.9 kmh 30.29 in1025.7 mb - 0.00 in0.0 mm 0.00 in0.0 mm
05:00 PM 51.3°F10.7°C 41.1°F5.1°C 68% Calm Calm 1.2 mph1.9 kmh 30.29 in1025.7 mb - 0.00 in0.0 mm 0.00 in0.0 mm
05:10 PM 51.0°F10.6°C 39.6°F4.2°C 65% Calm Calm 1.2 mph1.9 kmh 30.29 in1025.7 mb - 0.00 in0.0 mm 0.00 in0.0 mm
05:20 PM 50.9°F10.5°C 39.5°F4.2°C 65% 2.3 mph SW3.7 kmh SW 3.5 mph5.6 kmh 30.29 in1025.7 mb - 0.00 in0.0 mm 0.00 in0.0 mm
05:30 PM 50.6°F10.3°C 40.0°F4.4°C 67% 1.2 mph S1.9 kmh S 2.3 mph3.7 kmh 30.28 in1025.4 mb - 0.00 in0.0 mm 0.00 in0.0 mm
05:40 PM 50.3°F10.2°C 39.8°F4.3°C 67% Calm Calm -- 30.28 in1025.4 mb - 0.00 in0.0 mm 0.00 in0.0 mm
05:50 PM 50.2°F10.1°C 40.0°F4.4°C 68% Calm Calm 1.2 mph1.9 kmh 30.27 in1025.1 mb - 0.00 in0.0 mm 0.00 in0.0 mm
06:00 PM 50.0°F10.0°C 40.6°F4.8°C 70% Calm Calm 1.2 mph1.9 kmh 30.27 in1025.1 mb - 0.00 in0.0 mm 0.00 in0.0 mm
06:10 PM 49.9°F9.9°C 40.9°F4.9°C 71% Calm Calm 1.2 mph1.9 kmh 30.28 in1025.4 mb - 0.00 in0.0 mm 0.00 in0.0 mm
06:20 PM 49.8°F9.9°C 41.8°F5.4°C 74% Calm Calm -- 30.28 in1025.4 mb - 0.00 in0.0 mm 0.00 in0.0 mm
06:30 PM 49.5°F9.7°C 42.2°F5.7°C 76% 1.2 mph SE1.9 kmh SE 2.3 mph3.7 kmh 30.27 in1025.1 mb - 0.00 in0.0 mm 0.00 in0.0 mm
06:40 PM 49.2°F9.6°C 42.3°F5.7°C 77% Calm Calm 1.2 mph1.9 kmh 30.25 in1024.4 mb - 0.00 in0.0 mm 0.00 in0.0 mm
06:50 PM 49.0°F9.4°C 42.8°F6.0°C 79% Calm Calm -- 30.25 in1024.4 mb - 0.00 in0.0 mm 0.00 in0.0 mm
07:00 PM 48.9°F9.4°C 43.0°F6.1°C 80% Calm Calm -- 30.26 in1024.7 mb - 0.00 in0.0 mm 0.00 in0.0 mm
07:10 PM 48.6°F9.2°C 42.7°F5.9°C 80% 1.2 mph SSE1.9 kmh SSE 3.5 mph5.6 kmh 30.26 in1024.7 mb - 0.00 in0.0 mm 0.00 in0.0 mm
07:20 PM 48.3°F9.1°C 43.1°F6.2°C 82% 1.2 mph SE1.9 kmh SE 2.3 mph3.7 kmh 30.25 in1024.4 mb - 0.00 in0.0 mm 0.00 in0.0 mm
07:30 PM 48.1°F8.9°C 43.5°F6.4°C 84% 1.2 mph WSW1.9 kmh WSW 1.2 mph1.9 kmh 30.25 in1024.4 mb - 0.00 in0.0 mm 0.00 in0.0 mm
07:40 PM 47.9°F8.8°C 43.3°F6.3°C 84% 1.2 mph SW1.9 kmh SW 2.3 mph3.7 kmh 30.25 in1024.4 mb - 0.00 in0.0 mm 0.00 in0.0 mm
07:50 PM 47.8°F8.8°C 43.5°F6.4°C 85% 1.2 mph SW1.9 kmh SW 1.2 mph1.9 kmh 30.25 in1024.4 mb - 0.00 in0.0 mm 0.00 in0.0 mm
08:00 PM 47.6°F8.7°C 43.9°F6.6°C 87% Calm Calm 1.2 mph1.9 kmh 30.25 in1024.4 mb - 0.00 in0.0 mm 0.00 in0.0 mm
08:10 PM 47.3°F8.5°C 44.0°F6.7°C 88% Calm Calm -- 30.25 in1024.4 mb - 0.00 in0.0 mm 0.00 in0.0 mm
08:20 PM 47.1°F8.4°C 44.0°F6.7°C 89% Calm Calm -- 30.25 in1024.4 mb - 0.00 in0.0 mm 0.00 in0.0 mm
08:30 PM 46.9°F8.3°C 44.1°F6.7°C 90% Calm Calm -- 30.24 in1024.0 mb - 0.00 in0.0 mm 0.00 in0.0 mm
08:40 PM 46.6°F8.1°C 43.8°F6.6°C 90% 1.2 mph SW1.9 kmh SW 2.3 mph3.7 kmh 30.23 in1023.7 mb - 0.00 in0.0 mm 0.00 in0.0 mm
08:50 PM 46.4°F8.0°C 43.9°F6.6°C 91% Calm Calm -- 30.23 in1023.7 mb - 0.00 in0.0 mm 0.00 in0.0 mm
09:00 PM 46.2°F7.9°C 44.0°F6.7°C 92% 1.2 mph ESE1.9 kmh ESE 5.8 mph9.3 kmh 30.22 in1023.4 mb - 0.00 in0.0 mm 0.00 in0.0 mm
09:10 PM 46.0°F7.8°C 44.1°F6.7°C 93% Calm Calm -- 30.22 in1023.4 mb - 0.00 in0.0 mm 0.00 in0.0 mm
09:20 PM 45.9°F7.7°C 44.0°F6.7°C 93% 1.2 mph SSE1.9 kmh SSE 1.2 mph1.9 kmh 30.21 in1023.0 mb - 0.00 in0.0 mm 0.00 in0.0 mm
09:30 PM 45.8°F7.7°C 43.9°F6.6°C 93% Calm Calm 1.2 mph1.9 kmh 30.20 in1022.7 mb - 0.00 in0.0 mm 0.00 in0.0 mm
09:40 PM 45.7°F7.6°C 44.1°F6.7°C 94% Calm Calm 1.2 mph1.9 kmh 30.20 in1022.7 mb - 0.00 in0.0 mm 0.00 in0.0 mm
09:50 PM 45.6°F7.6°C 44.0°F6.7°C 94% 1.2 mph SE1.9 kmh SE 2.3 mph3.7 kmh 30.20 in1022.7 mb - 0.00 in0.0 mm 0.00 in0.0 mm
10:00 PM 45.6°F7.6°C 44.0°F6.7°C 94% 1.2 mph SE1.9 kmh SE 1.2 mph1.9 kmh 30.19 in1022.4 mb - 0.00 in0.0 mm 0.00 in0.0 mm
10:10 PM 45.6°F7.6°C 43.9°F6.6°C 94% Calm Calm -- 30.19 in1022.4 mb - 0.00 in0.0 mm 0.00 in0.0 mm
10:20 PM 45.5°F7.5°C 44.2°F6.8°C 95% Calm Calm -- 30.19 in1022.4 mb - 0.00 in0.0 mm 0.00 in0.0 mm
10:30 PM 45.5°F7.5°C 44.2°F6.8°C 95% Calm Calm 1.2 mph1.9 kmh 30.18 in1022.0 mb - 0.00 in0.0 mm 0.00 in0.0 mm
10:40 PM 45.6°F7.6°C 44.2°F6.8°C 95% Calm Calm -- 30.18 in1022.0 mb - 0.00 in0.0 mm 0.00 in0.0 mm
10:50 PM 45.6°F7.6°C 44.2°F6.8°C 95% Calm Calm -- 30.17 in1021.7 mb - 0.00 in0.0 mm 0.00 in0.0 mm
11:00 PM 45.6°F7.6°C 44.3°F6.8°C 95% Calm Calm 1.2 mph1.9 kmh 30.17 in1021.7 mb - 0.00 in0.0 mm 0.00 in0.0 mm
11:10 PM 45.6°F7.6°C 44.3°F6.8°C 95% Calm Calm 2.3 mph3.7 kmh 30.16 in1021.3 mb - 0.00 in0.0 mm 0.00 in0.0 mm
11:20 PM 45.7°F7.6°C 44.4°F6.9°C 95% Calm Calm -- 30.16 in1021.3 mb - 0.00 in0.0 mm 0.00 in0.0 mm
11:30 PM 45.7°F7.6°C 44.4°F6.9°C 95% 1.2 mph SSW1.9 kmh SSW 2.3 mph3.7 kmh 30.16 in1021.3 mb - 0.00 in0.0 mm 0.00 in0.0 mm
11:40 PM 45.8°F7.7°C 44.7°F7.1°C 96% Calm Calm 2.3 mph3.7 kmh 30.16 in1021.3 mb - 0.00 in0.0 mm 0.00 in0.0 mm
11:50 PM 45.9°F7.7°C 44.8°F7.1°C 96% Calm Calm -- 30.16 in1021.3 mb - 0.00 in0.0 mm 0.00 in0.0 mm